Aktualne dane pomiarowe

Uwaga, wersja testowa! Automatyczne pobieranie danych za pomocą narzędzi lub skryptów to umożliwiających jest zabronione.

Dane meteo z obszaru Polski uzyskane na podstawie depesz SYNOP pobieranych co godzinę z NWS. Najedź myszką na symbol przedstawiony w tabeli, aby uzyskać informacje co do jego znaczenia. Prosimy pamiętać, że to testowa wersja strony, która jeszcze nie jest ukończona. Stworzono również jest krótki FAQ dotyczący korzystania z tej podstrony Anomalie temperatury w chwili obecnej odniesione są do okresu referencyjnego 1951-2016. Okres ten będzie później zmieniony na 1981-2010. Kliknij ikonę aby pobrać plik CSV. Kliknij ikonę aby wygenerować mapę synoptyczną dla danego terminu.

Wybierz Datę:    

        

Łódź (12465)

Dane terminowe dla wybranej stacji. Kliknij datę, aby otrzymać dane z tego terminu dla wszystkich stacji.

TemperaturaZachmurzenieWiatrCiśnienieOpadyPogoda
 Data t td wb tx tn tg rh  Nt Nl Cl Cm Ch ws wd g1 g2 wx mslp ppp ch 24h 12h t ww ww w1 w2  
2019-08-17 23:00:00 16.7 11.0 13.1--- 6920.0wx-wx1---11013.3 991.9 -0.2---------
2019-08-17 22:00:00 16.2 11.1 12.9--- 7220.0wx-wx1wx--11013.6 992.2 -0.1---------
2019-08-17 21:00:00 17.0 10.8 13.1--- 6720.0wx-wx1---11013.3 991.9 -0.5---------
2019-08-17 20:00:00 17.2 10.6 13.1--- 6520.0wx-wxwx1---11013.5 992.1 -0.2---------
2019-08-17 19:00:00 19.4 10.1 13.8--- 5520.0wx-wxwx1wx--11013.5 992.3 -0.3---------
2019-08-17 18:00:00 21.9 9.8 14.8 24.7 15.8- 4620.0wx-wx2wx--21013.4 992.4 -0.2- 0.012------
2019-08-17 17:00:00 23.0 9.8 15.3--- 4320.0wxwxwxwxwx2---21013.3 992.3 -0.6---------
2019-08-17 16:00:00 23.4 10.2 15.6--- 4320.0wxwxwxwx2---21013.5 992.6 -0.7---------
2019-08-17 15:00:00 23.6 10.7 15.9--- 4420.0wxwxwxwxwx2wx--21013.5 992.6 -1.0---------
2019-08-17 14:00:00 24.1 10.1 15.9--- 4120.0wxwxwxwxwx3---31013.8 992.9 -1.1---------
2019-08-17 13:00:00 24.0 11.1 16.3--- 4420.0wxwxwxwx3wx--31014.2 993.3 -1.3---------
2019-08-17 12:00:00 24.0 10.7 16.1--- 4320.0wxwxwxwx2wx---1014.5 993.6 -1.2---------
2019-08-17 11:00:00 24.2 10.9 16.3--- 4320.0wxwxwxwx3---31014.9 994.0 -1.1---------
2019-08-17 10:00:00 22.5 11.3 15.7--- 4920.0wxwxwxwx3wx--31015.6 994.6 -0.7---------
2019-08-17 09:00:00 22.8 11.3 15.9--- 4820.0wxwxwxwx2wx--21015.8 994.8 -0.5---------
2019-08-17 08:00:00 21.2 11.9 15.5--- 5520.0wxwxwxwxwx2wx--21016.2 995.1 -0.1---------
2019-08-17 07:00:00 19.0 13.8 15.6--- 7220.0wx-wx1wx--11016.6 995.3 0.0---------
2019-08-17 06:00:00 16.0 13.7 14.4 18.1 9.0 7 8620.0wx-wx1wx--11016.8 995.3 0.3- 0.012----- 1.5
2019-08-17 05:00:00 12.7 12.1 12.2--- 9611.0wx-wx1wx---1017.0 995.2 0.2---------
2019-08-17 04:00:00 9.6 9.0 9.1--- 969.0wx-1wx--11017.3 995.3 0.0---wx---
2019-08-17 03:00:00 9.3 8.7 8.8--- 969.0wx-1wx--11017.0 995.0 -0.1---wx---
2019-08-17 02:00:00 9.7 8.6 8.9--- 9315.0wx-1wx---1017.0 995.0 -0.1---wx---
2019-08-17 01:00:00 10.5 9.4 9.7--- 9320.0wx-1wx--11017.3 995.3 0.0---wx---
2019-08-17 00:00:00 11.3 10.5 10.7--- 9520.0wx-1wx--11017.0 995.1 -0.1- 0.06wx---
2019-08-16 23:00:00 12.4 10.3 11.0--- 8720.0wx-wx1wx--11016.9 995.1 0.0---------
2019-08-16 22:00:00 14.2 12.4 12.9--- 8920.0wx-wx1wx--11017.0 995.3 0.1---------
2019-08-16 21:00:00 14.4 11.7 12.6--- 8420.0wxwxwxwxwx1wx--11016.9 995.2 0.7---------
2019-08-16 20:00:00 17.5 11.3 13.6--- 6720.0wxwxwxwxwx2wx--21016.5 995.1 1.1---------
2019-08-16 19:00:00 17.8 13.7 15.1--- 7720.0wxwxwxwxwx4wx--41016.6 995.2 1.4---------
2019-08-16 18:00:00 16.8 12.9 14.2 23.4 14.9- 7820.0wxwxwxwxwx1wx-1211016.0 994.5 0.6--12------
2019-08-16 17:00:00 21.2 11.9 15.5--- 5520.0wxwxwxwxwx3wx--31015.1 994.0 0.1---------
2019-08-16 16:00:00 22.1 13.3 16.6--- 5720.0wxwxwxwxwx1wx---1014.8 993.8 0.1---------
2019-08-16 15:00:00 20.7 13.2 15.9--- 6220.0wxwxwxwxwx2wx-1221015.1 993.9 0.0---------
2019-08-16 14:00:00 20.2 13.0 15.6--- 6320.0wxwxwxwx6wx-1261015.1 993.9 0.0---------
2019-08-16 13:00:00 22.6 11.1 15.7--- 4820.0wxwxwxwx3wx--31014.7 993.7 -0.6---------
2019-08-16 12:00:00 21.8 11.0 15.3--- 5020.0wxwxwxwxwx2---21015.0 993.9 -0.6--6wx-w1--
2019-08-16 11:00:00 20.4 11.4 14.9--- 5620.0wxwxwxwxwx0----1015.1 993.9 -0.5---wx---
2019-08-16 10:00:00 18.2 13.7 15.2--- 7520.0wxwxwxwx2wx--21015.6 994.3 0.4---wx-w1--
2019-08-16 09:00:00 17.6 12.5 14.3--- 7220.0wxwxwxwx3wx--31015.9 994.5 0.9---wx-w1--
2019-08-16 08:00:00 16.9 11.2 13.3--- 6920.0wxwxwxwx1wx--11015.8 994.4 1.2---wx---
2019-08-16 07:00:00 15.9 10.9 12.7--- 7220.0wxwxwxwx1wx--11015.4 993.9 0.9---------
2019-08-16 06:00:00 14.9 11.1 12.4 19.4 12.6 10 7820.0wxwxwxwx1wx--11015.2 993.6 0.8--12wx-- 11.3
2019-08-16 05:00:00 14.5 9.9 11.6--- 7420.0wxwxwxwx1wx--11014.8 993.2 0.3---wx---
2019-08-16 04:00:00 14.2 9.4 11.2--- 7320.0wxwxwxwx2wx--21014.6 993.0 0.0---------
2019-08-16 03:00:00 14.5 9.1 11.2--- 7020.0wx-wx1wx--11014.4 992.8 -0.4---------
2019-08-16 02:00:00 15.3 9.2 11.6--- 6720.0wx-wx2wx--21014.4 992.9 -0.5---------
2019-08-16 01:00:00 15.3 9.2 11.6--- 6720.0wx-wxwx2wx---1014.5 993.0 -0.5---------
2019-08-16 00:00:00 13.8 8.6 10.6--- 7120.0wx-wxwx2wx--21014.9 993.2 -0.2- 0.06------
1.1 ms

 

Print Friendly, PDF & Email